createdAt,value
2022-10-11T00:02:23.760Z,7.50
2022-10-11T00:04:58.243Z,8.33
2022-10-11T00:07:29.423Z,8.77
2022-10-11T00:10:03.585Z,8.47
2022-10-11T00:12:34.952Z,7.80
2022-10-11T00:15:09.229Z,9.50
2022-10-11T00:17:40.329Z,7.23
2022-10-11T00:20:12.621Z,8.93
2022-10-11T00:22:45.316Z,7.87
2022-10-11T00:25:18.929Z,7.63
2022-10-11T00:27:50.659Z,8.33
2022-10-11T00:30:22.712Z,8.73
2022-10-11T00:32:54.259Z,11.37
2022-10-11T00:35:25.571Z,6.50
2022-10-11T00:37:59.450Z,8.70
2022-10-11T00:40:32.377Z,9.00
2022-10-11T00:43:03.375Z,8.83
2022-10-11T00:46:26.603Z,9.13
2022-10-11T00:49:03.312Z,8.10
2022-10-11T00:51:51.247Z,7.40
2022-10-11T00:54:28.607Z,7.53
2022-10-11T00:57:07.085Z,11.23
2022-10-11T00:59:44.256Z,7.23
2022-10-11T01:02:18.705Z,8.23
2022-10-11T01:05:05.589Z,6.97
2022-10-11T01:07:42.002Z,8.13
2022-10-11T01:10:13.181Z,7.13
2022-10-11T01:13:01.744Z,7.73
2022-10-11T01:15:39.076Z,8.83
2022-10-11T01:18:18.296Z,7.47
2022-10-11T01:20:58.822Z,7.37
2022-10-11T01:24:08.671Z,9.23
2022-10-11T01:27:12.296Z,13.43
2022-10-11T01:29:54.311Z,8.70
2022-10-11T01:32:35.142Z,11.33
2022-10-11T01:35:12.281Z,8.27
2022-10-11T01:37:46.517Z,11.70
2022-10-11T01:40:23.362Z,14.63
2022-10-11T01:42:56.758Z,15.10
2022-10-11T01:45:28.787Z,15.87
2022-10-11T01:48:11.992Z,13.30
2022-10-11T01:50:49.993Z,13.47
2022-10-11T01:53:42.244Z,15.60
2022-10-11T01:56:25.818Z,11.33
2022-10-11T01:59:18.597Z,7.53
2022-10-11T02:01:59.920Z,6.80
2022-10-11T02:04:36.998Z,5.03
2022-10-11T02:07:16.044Z,4.60
2022-10-11T02:09:52.842Z,5.10
2022-10-11T02:12:28.911Z,4.47
2022-10-11T02:15:01.783Z,7.27
2022-10-11T02:17:37.269Z,6.90
2022-10-11T02:20:14.460Z,4.10
2022-10-11T02:22:49.415Z,4.73
2022-10-11T02:25:24.587Z,5.30
2022-10-11T02:27:58.066Z,5.10
2022-10-11T02:30:29.908Z,6.60
2022-10-11T02:33:02.876Z,8.70
2022-10-11T02:35:42.740Z,6.20
2022-10-11T02:38:21.743Z,5.30
2022-10-11T02:40:58.354Z,6.17
2022-10-11T02:43:38.324Z,5.00
2022-10-11T02:46:10.919Z,8.93
2022-10-11T02:48:42.980Z,6.37
2022-10-11T02:51:18.955Z,8.27
2022-10-11T02:53:50.321Z,9.40
2022-10-11T02:56:21.817Z,14.93
2022-10-11T02:58:53.275Z,13.73
2022-10-11T03:01:24.754Z,9.00
2022-10-11T03:03:55.838Z,12.23
2022-10-11T03:06:29.836Z,12.80
2022-10-11T03:09:01.486Z,12.10
2022-10-11T03:11:32.782Z,13.97
2022-10-11T03:14:03.849Z,13.07
2022-10-11T03:16:35.031Z,12.60
2022-10-11T03:19:06.266Z,13.47
2022-10-11T03:21:39.830Z,11.17
2022-10-11T03:24:12.060Z,12.50
2022-10-11T03:26:43.162Z,10.57
2022-10-11T03:29:15.334Z,10.00
2022-10-11T03:31:46.584Z,12.13
2022-10-11T03:34:18.149Z,13.80
2022-10-11T03:36:51.629Z,10.20
2022-10-11T03:39:22.622Z,12.03
2022-10-11T03:41:56.537Z,11.97
2022-10-11T03:44:27.769Z,11.80
2022-10-11T03:46:58.753Z,10.37
2022-10-11T03:49:29.801Z,11.63
2022-10-11T03:52:03.009Z,7.73
2022-10-11T03:54:34.511Z,11.00
2022-10-11T03:57:05.874Z,12.67
2022-10-11T03:59:37.394Z,13.67
2022-10-11T04:02:08.818Z,10.33
2022-10-11T04:04:40.803Z,13.97
2022-10-11T04:07:14.211Z,9.50
2022-10-11T04:09:45.438Z,11.40
2022-10-11T04:12:16.844Z,8.33
2022-10-11T04:14:48.230Z,9.07
2022-10-11T04:17:19.833Z,15.57
2022-10-11T04:19:51.108Z,10.10
2022-10-11T04:22:25.135Z,14.83
2022-10-11T04:24:56.540Z,12.07
2022-10-11T04:27:29.916Z,12.70
2022-10-11T04:30:00.987Z,12.57
2022-10-11T04:32:32.510Z,8.93
2022-10-11T04:35:04.830Z,7.13
2022-10-11T04:37:38.237Z,9.60
2022-10-11T04:40:11.413Z,12.33
2022-10-11T04:42:42.676Z,12.47
2022-10-11T04:45:14.121Z,13.97
2022-10-11T04:47:45.303Z,6.83
2022-10-11T04:50:16.317Z,8.43
2022-10-11T04:52:49.761Z,10.90
2022-10-11T04:55:21.013Z,11.07
2022-10-11T04:57:53.049Z,8.13
2022-10-11T05:00:24.782Z,10.80
2022-10-11T05:02:56.190Z,10.17
2022-10-11T05:05:28.337Z,10.53
2022-10-11T05:08:01.444Z,7.30
2022-10-11T05:10:32.896Z,9.33
2022-10-11T05:13:03.964Z,10.90
2022-10-11T05:15:34.998Z,10.37
2022-10-11T05:18:06.528Z,9.27
2022-10-11T05:20:37.524Z,9.60
2022-10-11T05:23:10.929Z,9.53
2022-10-11T05:25:41.946Z,10.73
2022-10-11T05:28:13.192Z,12.80
2022-10-11T05:30:44.248Z,14.60
2022-10-11T05:33:15.398Z,11.10
2022-10-11T05:35:46.809Z,12.03
2022-10-11T05:38:20.063Z,8.33
2022-10-11T05:40:51.549Z,16.77
2022-10-11T05:43:22.584Z,12.33
2022-10-11T05:45:53.703Z,12.23
2022-10-11T05:48:25.089Z,13.27
2022-10-11T05:50:57.255Z,12.03
2022-10-11T05:53:30.846Z,11.07
2022-10-11T05:56:03.166Z,11.60
2022-10-11T05:58:35.385Z,16.10
2022-10-11T06:01:06.276Z,13.37
2022-10-11T06:03:36.974Z,12.90
2022-10-11T06:06:08.455Z,12.70
2022-10-11T06:08:42.073Z,11.23
2022-10-11T06:11:15.593Z,14.97
2022-10-11T06:13:46.697Z,10.57
2022-10-11T06:16:17.693Z,11.40
2022-10-11T06:18:49.672Z,14.13
2022-10-11T06:21:21.000Z,15.60
2022-10-11T06:24:00.777Z,15.23
2022-10-11T06:26:32.470Z,12.60
2022-10-11T06:29:03.550Z,10.67
2022-10-11T06:31:34.980Z,19.83
2022-10-11T06:34:06.029Z,15.37
2022-10-11T06:36:38.086Z,10.80
2022-10-11T06:39:11.317Z,10.57
2022-10-11T06:41:42.363Z,14.53
2022-10-11T06:44:14.677Z,16.10
2022-10-11T06:46:45.889Z,12.73
2022-10-11T06:49:22.958Z,10.23
2022-10-11T06:51:54.626Z,13.23
2022-10-11T06:54:27.916Z,8.10
2022-10-11T06:56:59.349Z,12.70
2022-10-11T06:59:30.834Z,12.80
2022-10-11T07:02:02.007Z,11.63
2022-10-11T07:04:34.526Z,13.40
2022-10-11T07:07:05.743Z,16.23
2022-10-11T07:09:39.050Z,13.73
2022-10-11T07:12:11.031Z,11.80
2022-10-11T07:14:42.267Z,14.60
2022-10-11T07:17:14.178Z,14.53
2022-10-11T07:19:45.202Z,11.93
2022-10-11T07:22:16.713Z,13.63
2022-10-11T07:24:50.577Z,17.23
2022-10-11T07:27:22.434Z,13.47
2022-10-11T07:29:53.770Z,12.53
2022-10-11T07:32:25.379Z,15.30
2022-10-11T07:34:56.760Z,13.20
2022-10-11T07:37:29.144Z,10.10
2022-10-11T07:40:02.968Z,16.10
2022-10-11T07:42:34.963Z,11.73
2022-10-11T07:45:06.510Z,9.30
2022-10-11T07:47:37.523Z,9.40
2022-10-11T07:50:09.765Z,13.80
2022-10-11T07:52:41.265Z,12.57
2022-10-11T07:55:15.412Z,12.50
2022-10-11T07:57:46.523Z,14.87
2022-10-11T08:00:18.317Z,10.53
2022-10-11T08:02:49.868Z,10.60
2022-10-11T08:05:20.991Z,8.97
2022-10-11T08:07:51.815Z,10.93
2022-10-11T08:10:24.700Z,9.93
2022-10-11T08:12:58.567Z,12.23
2022-10-11T08:15:33.911Z,10.63
2022-10-11T08:18:04.921Z,13.33
2022-10-11T08:20:36.230Z,11.80
2022-10-11T08:23:07.572Z,11.83
2022-10-11T08:25:43.748Z,18.43
2022-10-11T08:28:17.923Z,9.20
2022-10-11T08:30:52.501Z,14.07
2022-10-11T08:33:25.964Z,11.93
2022-10-11T08:35:58.669Z,11.93
2022-10-11T08:38:30.646Z,11.47
2022-10-11T08:41:05.215Z,10.03
2022-10-11T08:43:46.678Z,9.30
2022-10-11T08:46:19.933Z,12.23
2022-10-11T08:48:52.971Z,10.27
2022-10-11T08:51:28.430Z,13.83
2022-10-11T08:54:07.320Z,8.90
2022-10-11T08:56:43.177Z,10.43
2022-10-11T08:59:28.043Z,7.90
2022-10-11T09:02:07.774Z,14.77
2022-10-11T09:04:38.922Z,12.03
2022-10-11T09:07:24.090Z,11.27
2022-10-11T09:10:10.753Z,9.73
2022-10-11T09:12:57.620Z,9.53
2022-10-11T09:15:34.009Z,9.70
2022-10-11T09:18:25.108Z,12.43
2022-10-11T09:21:05.521Z,11.00
2022-10-11T09:23:49.677Z,13.57
2022-10-11T09:26:29.831Z,8.73
2022-10-11T09:29:12.983Z,11.37
2022-10-11T09:31:45.356Z,16.90
2022-10-11T09:34:17.482Z,14.10
2022-10-11T09:36:55.292Z,14.63
2022-10-11T09:39:33.290Z,10.63
2022-10-11T09:42:06.419Z,9.83
2022-10-11T09:44:42.279Z,11.10
2022-10-11T09:47:18.389Z,11.00
2022-10-11T09:49:55.890Z,8.80
2022-10-11T09:52:28.516Z,10.33
2022-10-11T09:55:01.572Z,11.90
2022-10-11T09:57:34.815Z,9.83
2022-10-11T10:00:10.853Z,11.67
2022-10-11T10:02:47.824Z,12.93
2022-10-11T10:05:24.054Z,12.10
2022-10-11T10:08:23.590Z,15.90
2022-10-11T10:11:03.207Z,14.67
2022-10-11T10:13:44.214Z,16.40
2022-10-11T10:16:33.207Z,12.90
2022-10-11T10:19:06.168Z,11.70
2022-10-11T10:21:40.359Z,14.20
2022-10-11T10:24:20.627Z,8.83
2022-10-11T10:27:12.702Z,12.80
2022-10-11T10:29:44.140Z,14.93
2022-10-11T10:32:24.386Z,14.83
2022-10-11T10:35:04.009Z,14.10
2022-10-11T10:37:39.697Z,12.53
2022-10-11T10:40:17.497Z,16.67
2022-10-11T10:42:48.868Z,12.87
2022-10-11T10:45:22.074Z,12.50
2022-10-11T10:48:15.674Z,14.67
2022-10-11T10:50:54.501Z,11.10
2022-10-11T10:53:33.502Z,11.53
2022-10-11T10:56:10.720Z,11.77
2022-10-11T10:59:06.143Z,10.33
2022-10-11T11:01:43.532Z,12.50
2022-10-11T11:04:27.793Z,10.50
2022-10-11T11:07:02.378Z,12.07
2022-10-11T11:09:44.929Z,11.60
2022-10-11T11:12:28.796Z,12.17
2022-10-11T11:15:11.728Z,16.10
2022-10-11T11:17:56.585Z,16.60
2022-10-11T11:20:59.060Z,12.27
2022-10-11T11:23:36.277Z,10.70
2022-10-11T11:26:14.372Z,11.57
2022-10-11T11:29:03.036Z,12.60
2022-10-11T11:31:55.816Z,10.07
2022-10-11T11:34:29.872Z,14.83
2022-10-11T11:37:08.312Z,8.73
2022-10-11T11:39:47.605Z,15.47
2022-10-11T11:42:24.341Z,17.53
2022-10-11T11:44:56.619Z,16.37
2022-10-11T11:47:32.653Z,13.97
2022-10-11T11:50:08.860Z,15.13
2022-10-11T11:52:47.286Z,12.83
2022-10-11T11:55:24.484Z,17.50
2022-10-11T11:58:07.447Z,15.47
2022-10-11T12:00:44.607Z,14.40
2022-10-11T12:03:27.573Z,19.60
2022-10-11T12:06:31.713Z,15.13
2022-10-11T12:09:26.157Z,15.57
2022-10-11T12:11:59.602Z,14.80
2022-10-11T12:14:40.458Z,14.27
2022-10-11T12:17:16.599Z,12.67
2022-10-11T12:20:08.136Z,14.40
2022-10-11T12:22:59.085Z,13.83
2022-10-11T12:26:10.033Z,14.37
2022-10-11T12:29:37.498Z,17.47
2022-10-11T12:33:04.512Z,18.50
2022-10-11T12:35:53.752Z,11.90
2022-10-11T12:38:27.640Z,11.73
2022-10-11T12:41:03.987Z,11.73
2022-10-11T12:43:38.150Z,11.27
2022-10-11T12:46:42.827Z,10.83
2022-10-11T12:49:33.348Z,12.23
2022-10-11T12:52:05.671Z,11.57
2022-10-11T12:55:10.278Z,12.50
2022-10-11T12:58:09.988Z,10.93
2022-10-11T13:00:47.443Z,13.17
2022-10-11T13:03:38.120Z,15.20
2022-10-11T13:06:17.434Z,15.57
2022-10-11T13:08:55.507Z,18.20
2022-10-11T13:11:31.487Z,16.40
2022-10-11T13:14:11.514Z,15.90
2022-10-11T13:16:59.683Z,12.17
2022-10-11T13:19:31.766Z,19.23
2022-10-11T13:22:05.067Z,14.63
2022-10-11T13:24:43.504Z,14.07
2022-10-11T13:27:22.996Z,10.70
2022-10-11T13:30:00.636Z,11.83
2022-10-11T13:32:33.836Z,12.43
2022-10-11T13:35:07.627Z,16.37
2022-10-11T13:37:45.671Z,11.20
2022-10-11T13:40:19.437Z,12.57
2022-10-11T13:42:51.753Z,16.00
2022-10-11T13:45:26.498Z,13.47
2022-10-11T13:47:58.784Z,13.07
2022-10-11T13:50:34.645Z,11.07
2022-10-11T13:53:07.285Z,13.07
2022-10-11T13:55:50.457Z,13.37
2022-10-11T13:58:36.876Z,13.23
2022-10-11T14:01:20.259Z,11.73
2022-10-11T14:03:56.792Z,13.60
2022-10-11T14:06:41.258Z,11.73
2022-10-11T14:09:20.685Z,14.83
2022-10-11T14:11:51.862Z,14.27
2022-10-11T14:14:40.907Z,13.00
2022-10-11T14:17:20.298Z,14.87
2022-10-11T14:20:11.148Z,18.50
2022-10-11T14:22:42.871Z,12.97
2022-10-11T14:25:14.128Z,10.37
2022-10-11T14:27:45.226Z,17.13
2022-10-11T14:30:25.751Z,14.43
2022-10-11T14:33:03.224Z,12.93
2022-10-11T14:35:35.909Z,12.27
2022-10-11T14:38:06.858Z,14.50
2022-10-11T14:40:41.372Z,16.27
2022-10-11T14:43:13.262Z,13.83
2022-10-11T14:45:52.883Z,14.23
2022-10-11T14:48:50.310Z,10.40
2022-10-11T14:51:19.379Z,16.63
2022-10-11T14:53:51.132Z,19.17
2022-10-11T14:56:22.218Z,14.80
2022-10-11T14:58:53.421Z,9.80
2022-10-11T15:01:25.164Z,17.77
2022-10-11T15:03:58.696Z,12.33
2022-10-11T15:06:33.090Z,18.40
2022-10-11T15:09:03.913Z,16.13
2022-10-11T15:11:35.325Z,14.40
2022-10-11T15:14:08.686Z,16.00
2022-10-11T15:16:41.092Z,14.97
2022-10-11T15:19:18.970Z,13.77
2022-10-11T15:21:53.590Z,15.23
2022-10-11T15:24:25.531Z,15.30
2022-10-11T15:26:57.140Z,11.13
2022-10-11T15:29:28.184Z,12.23
2022-10-11T15:31:58.978Z,14.20
2022-10-11T15:34:32.551Z,16.13
2022-10-11T15:37:03.858Z,13.97
2022-10-11T15:39:35.060Z,15.50
2022-10-11T15:42:06.269Z,17.83
2022-10-11T15:44:37.324Z,16.40
2022-10-11T15:47:08.259Z,20.97
2022-10-11T15:49:41.205Z,17.60
2022-10-11T15:52:12.354Z,14.47
2022-10-11T15:54:43.806Z,20.57
2022-10-11T15:57:15.158Z,19.20
2022-10-11T15:59:46.288Z,16.30
2022-10-11T16:02:18.838Z,12.53
2022-10-11T16:04:51.533Z,16.37
2022-10-11T16:07:22.530Z,21.43
2022-10-11T16:09:54.360Z,18.40
2022-10-11T16:12:25.872Z,18.13
2022-10-11T16:14:57.445Z,19.63
2022-10-11T16:17:28.719Z,16.17
2022-10-11T16:20:01.863Z,15.43
2022-10-11T16:22:33.527Z,23.70
2022-10-11T16:25:05.160Z,17.50
2022-10-11T16:27:37.755Z,16.10
2022-10-11T16:30:12.732Z,13.50
2022-10-11T16:32:45.344Z,18.30
2022-10-11T16:35:19.451Z,18.27
2022-10-11T16:37:50.548Z,18.77
2022-10-11T16:40:22.903Z,11.70
2022-10-11T16:42:54.908Z,13.93
2022-10-11T16:45:27.640Z,19.20
2022-10-11T16:47:58.673Z,15.33
2022-10-11T16:50:36.880Z,19.80
2022-10-11T16:53:10.473Z,11.37
2022-10-11T16:55:43.473Z,14.87
2022-10-11T16:58:14.685Z,14.27
2022-10-11T17:00:46.743Z,22.07
2022-10-11T17:03:18.073Z,18.27
2022-10-11T17:05:50.745Z,13.03
2022-10-11T17:08:22.750Z,16.23
2022-10-11T17:10:57.902Z,17.97
2022-10-11T17:13:29.817Z,15.57
2022-10-11T17:16:01.137Z,15.50
2022-10-11T17:18:32.481Z,17.73
2022-10-11T17:21:11.015Z,14.57
2022-10-11T17:23:42.634Z,20.93
2022-10-11T17:26:20.952Z,13.73
2022-10-11T17:28:52.177Z,13.10
2022-10-11T17:31:23.637Z,17.60
2022-10-11T17:33:56.275Z,20.13
2022-10-11T17:36:31.558Z,11.13
2022-10-11T17:39:04.002Z,16.10
2022-10-11T17:41:35.141Z,16.23
2022-10-11T17:44:06.859Z,17.37
2022-10-11T17:46:38.443Z,15.87
2022-10-11T17:49:14.101Z,12.67
2022-10-11T17:51:48.347Z,14.40
2022-10-11T17:54:19.643Z,18.53
2022-10-11T17:56:51.266Z,13.43
2022-10-11T17:59:24.225Z,13.43
2022-10-11T18:01:55.170Z,16.40
2022-10-11T18:04:28.463Z,14.37
2022-10-11T18:07:02.050Z,13.87
2022-10-11T18:09:35.237Z,16.00
2022-10-11T18:12:06.273Z,15.07
2022-10-11T18:14:38.350Z,12.93
2022-10-11T18:17:10.285Z,15.77
2022-10-11T18:19:41.756Z,16.93
2022-10-11T18:22:15.283Z,11.90
2022-10-11T18:24:46.795Z,11.53
2022-10-11T18:27:19.622Z,9.50
2022-10-11T18:29:51.101Z,8.00
2022-10-11T18:32:22.646Z,11.67
2022-10-11T18:34:54.077Z,11.10
2022-10-11T18:37:28.115Z,7.77
2022-10-11T18:39:59.764Z,13.00
2022-10-11T18:42:30.621Z,10.07
2022-10-11T18:45:02.384Z,10.90
2022-10-11T18:47:33.668Z,8.80
2022-10-11T18:50:04.924Z,11.20
2022-10-11T18:52:41.259Z,10.60
2022-10-11T18:55:15.430Z,7.33
2022-10-11T18:57:47.297Z,13.70
2022-10-11T19:00:39.780Z,12.73
2022-10-11T19:03:10.120Z,9.63
2022-10-11T19:05:42.684Z,9.87
2022-10-11T19:08:16.321Z,8.77
2022-10-11T19:10:48.025Z,14.03
2022-10-11T19:13:19.968Z,8.27
2022-10-11T19:15:51.284Z,10.83
2022-10-11T19:18:22.348Z,6.50
2022-10-11T19:20:53.361Z,12.83
2022-10-11T19:23:26.485Z,7.47
2022-10-11T19:26:00.850Z,9.87
2022-10-11T19:28:32.461Z,11.13
2022-10-11T19:31:07.360Z,7.63
2022-10-11T19:33:39.938Z,10.87
2022-10-11T19:36:13.329Z,6.10
2022-10-11T19:38:49.595Z,8.70
2022-10-11T19:41:22.590Z,7.57
2022-10-11T19:43:54.212Z,5.67
2022-10-11T19:46:50.582Z,9.40
2022-10-11T19:49:21.367Z,8.93
2022-10-11T19:51:52.556Z,8.97
2022-10-11T19:54:26.067Z,10.70
2022-10-11T19:56:57.235Z,10.00
2022-10-11T19:59:29.025Z,5.37
2022-10-11T20:01:59.980Z,9.73
2022-10-11T20:04:51.478Z,8.47
2022-10-11T20:07:22.346Z,11.23
2022-10-11T20:09:55.331Z,5.13
2022-10-11T20:12:29.470Z,7.27
2022-10-11T20:15:01.015Z,6.50
2022-10-11T20:17:45.023Z,6.13
2022-10-11T20:20:16.731Z,5.97
2022-10-11T20:22:48.432Z,8.37
2022-10-11T20:25:21.759Z,7.30
2022-10-11T20:27:53.776Z,8.77
2022-10-11T20:30:24.857Z,7.77
2022-10-11T20:32:56.281Z,6.27
2022-10-11T20:35:28.227Z,7.70
2022-10-11T20:37:59.629Z,7.13
2022-10-11T20:40:32.628Z,4.90
2022-10-11T20:43:03.717Z,5.77
2022-10-11T20:45:34.761Z,8.10
2022-10-11T20:48:05.771Z,6.63
2022-10-11T20:50:37.475Z,8.33
2022-10-11T20:53:14.154Z,8.87
2022-10-11T20:55:50.359Z,6.83
2022-10-11T20:58:21.773Z,6.20
2022-10-11T21:00:52.721Z,6.53
2022-10-11T21:03:23.608Z,9.50
2022-10-11T21:06:02.611Z,6.10
2022-10-11T21:08:34.059Z,8.73
2022-10-11T21:11:07.785Z,10.80
2022-10-11T21:13:39.821Z,9.20
2022-10-11T21:16:13.790Z,7.57
2022-10-11T21:18:44.920Z,11.47
2022-10-11T21:21:18.097Z,12.60
2022-10-11T21:23:49.155Z,8.87
2022-10-11T21:26:26.751Z,8.50
2022-10-11T21:28:58.028Z,7.93
2022-10-11T21:31:33.855Z,7.83
2022-10-11T21:34:06.290Z,8.10
2022-10-11T21:36:37.597Z,11.37
2022-10-11T21:39:08.669Z,10.30
2022-10-11T21:41:43.070Z,10.07
2022-10-11T21:44:14.399Z,9.37
2022-10-11T21:47:05.901Z,8.20
2022-10-11T21:49:36.583Z,10.07
2022-10-11T21:52:08.509Z,7.87
2022-10-11T21:54:39.637Z,9.07
2022-10-11T21:57:14.611Z,6.70
2022-10-11T21:59:46.998Z,6.93
2022-10-11T22:02:18.545Z,6.00
2022-10-11T22:04:49.735Z,8.00
2022-10-11T22:07:20.938Z,6.20
2022-10-11T22:09:51.925Z,5.60
2022-10-11T22:12:25.835Z,3.87
2022-10-11T22:14:56.825Z,8.23
2022-10-11T22:17:28.134Z,6.20
2022-10-11T22:19:59.540Z,5.17
2022-10-11T22:22:30.937Z,5.60
2022-10-11T22:25:02.455Z,3.90
2022-10-11T22:27:36.260Z,4.43
2022-10-11T22:30:08.236Z,7.00
2022-10-11T22:32:39.848Z,4.00
2022-10-11T22:35:11.308Z,6.07
2022-10-11T22:37:42.442Z,5.90
2022-10-11T22:40:14.252Z,5.53
2022-10-11T22:42:47.452Z,5.43
2022-10-11T22:45:18.557Z,6.67
2022-10-11T22:47:49.669Z,4.10
2022-10-11T22:50:20.786Z,3.93
2022-10-11T22:52:51.877Z,10.03
2022-10-11T22:55:23.050Z,5.83
2022-10-11T22:57:56.679Z,4.93
2022-10-11T23:00:27.717Z,5.40
2022-10-11T23:02:59.748Z,3.30
2022-10-11T23:05:31.011Z,4.53
2022-10-11T23:08:01.804Z,4.90
2022-10-11T23:10:32.773Z,6.23
2022-10-11T23:13:06.789Z,4.60
2022-10-11T23:15:37.818Z,3.10
2022-10-11T23:18:09.596Z,4.00
2022-10-11T23:20:43.467Z,5.47
2022-10-11T23:23:15.861Z,4.43
2022-10-11T23:25:46.752Z,5.47
2022-10-11T23:28:20.410Z,9.93
2022-10-11T23:30:51.541Z,3.27
2022-10-11T23:33:22.468Z,7.13
2022-10-11T23:35:53.113Z,6.90
2022-10-11T23:38:24.286Z,3.40
2022-10-11T23:40:55.381Z,5.10
2022-10-11T23:43:28.975Z,5.23
2022-10-11T23:46:00.259Z,3.43
2022-10-11T23:48:31.340Z,5.27
2022-10-11T23:51:02.756Z,4.53
2022-10-11T23:53:34.040Z,3.93
2022-10-11T23:56:05.076Z,3.13
2022-10-11T23:58:38.612Z,5.00
